KZR205 UATT-UWKD
Flight info
| Callsign | KZR205 |
|---|---|
| Flight time | 1h 26m |
| Altitude | 36000 |
| Route | MULTA5D MULTA M162 PODUT T750 MOF T793 TONSI TONSI1T |
| Aircraft | A21N/M-SDE3FGHIRWY/LB1 |
Departure
| Time | 2026-05-07 16:50 |
|---|---|
| Airport | Aktobe International Airport (UATT) |
Arrival
| Time | 2026-05-07 18:16 |
|---|---|
| Airport | Kazan International Airport (UWKD) |
| Time | Latitude | Longitude | Altitude | Speed | Heading |
|---|---|---|---|---|---|
| 2026-05-07 16:26 | 50.24788 | 57.21036 | 746 ft | 0 kts | 45° |
| 2026-05-07 16:38 | 50.24788 | 57.21035 | 746 ft | 0 kts | 45° |
| 2026-05-07 16:39 | 50.24778 | 57.21021 | 746 ft | 2 kts | 45° |
| 2026-05-07 16:39 | 50.24772 | 57.21010 | 746 ft | 2 kts | 45° |
| 2026-05-07 16:39 | 50.24760 | 57.20996 | 746 ft | 2 kts | 26° |
| 2026-05-07 16:39 | 50.24746 | 57.20987 | 746 ft | 2 kts | 14° |
| 2026-05-07 16:40 | 50.24731 | 57.20983 | 746 ft | 2 kts | 360° |
| 2026-05-07 16:40 | 50.24721 | 57.20985 | 746 ft | 0 kts | 350° |
| 2026-05-07 16:40 | 50.24715 | 57.20987 | 746 ft | 0 kts | 348° |
| 2026-05-07 16:44 | 50.24716 | 57.20986 | 746 ft | 0 kts | 348° |
| 2026-05-07 16:44 | 50.24727 | 57.20977 | 746 ft | 4 kts | 315° |
| 2026-05-07 16:44 | 50.24750 | 57.20921 | 746 ft | 7 kts | 301° |
| 2026-05-07 16:44 | 50.24746 | 57.20835 | 746 ft | 9 kts | 240° |
| 2026-05-07 16:45 | 50.24694 | 57.20747 | 746 ft | 12 kts | 223° |
| 2026-05-07 16:45 | 50.24630 | 57.20654 | 746 ft | 8 kts | 221° |
| 2026-05-07 16:45 | 50.24566 | 57.20639 | 746 ft | 10 kts | 152° |
| 2026-05-07 16:45 | 50.24506 | 57.20722 | 746 ft | 12 kts | 137° |
| 2026-05-07 16:46 | 50.24440 | 57.20824 | 746 ft | 14 kts | 134° |
| 2026-05-07 16:46 | 50.24361 | 57.20952 | 746 ft | 18 kts | 135° |
| 2026-05-07 16:46 | 50.24264 | 57.21102 | 746 ft | 20 kts | 135° |
| 2026-05-07 16:46 | 50.24157 | 57.21271 | 746 ft | 23 kts | 135° |
| 2026-05-07 16:47 | 50.24035 | 57.21453 | 746 ft | 25 kts | 135° |
| 2026-05-07 16:47 | 50.23907 | 57.21653 | 746 ft | 26 kts | 135° |
| 2026-05-07 16:47 | 50.23786 | 57.21840 | 746 ft | 24 kts | 135° |
| 2026-05-07 16:47 | 50.23701 | 57.21978 | 746 ft | 15 kts | 123° |
| 2026-05-07 16:48 | 50.23675 | 57.22107 | 746 ft | 7 kts | 99° |
| 2026-05-07 16:48 | 50.23639 | 57.22142 | 746 ft | 7 kts | 205° |
| 2026-05-07 16:48 | 50.23635 | 57.22075 | 746 ft | 4 kts | 311° |
| 2026-05-07 16:48 | 50.23637 | 57.22070 | 746 ft | 0 kts | 313° |
| 2026-05-07 16:49 | 50.23644 | 57.22060 | 746 ft | 2 kts | 313° |
| 2026-05-07 16:49 | 50.23782 | 57.21843 | 746 ft | 65 kts | 314° |
| 2026-05-07 16:49 | 50.24280 | 57.21076 | 746 ft | 132 kts | 315° |
| 2026-05-07 16:49 | 50.25059 | 57.19852 | 805 ft | 179 kts | 314° |
| 2026-05-07 16:50 | 50.25959 | 57.18427 | 1390 ft | 186 kts | 314° |
| 2026-05-07 16:50 | 50.26864 | 57.16983 | 2129 ft | 188 kts | 313° |
| 2026-05-07 16:50 | 50.27166 | 57.16499 | 2416 ft | 187 kts | 313° |
| 2026-05-07 16:50 | 50.28784 | 57.14280 | 3269 ft | 199 kts | 336° |
| 2026-05-07 16:51 | 50.30207 | 57.13824 | 3586 ft | 216 kts | 353° |
| 2026-05-07 16:51 | 50.31743 | 57.13534 | 3886 ft | 233 kts | 352° |
| 2026-05-07 16:51 | 50.33369 | 57.13073 | 4253 ft | 247 kts | 348° |
| 2026-05-07 16:51 | 50.35100 | 57.12513 | 4681 ft | 260 kts | 347° |
| 2026-05-07 16:52 | 50.36910 | 57.11911 | 5193 ft | 270 kts | 347° |
| 2026-05-07 16:52 | 50.38768 | 57.11231 | 5689 ft | 281 kts | 346° |
| 2026-05-07 16:52 | 50.40692 | 57.10490 | 6216 ft | 291 kts | 346° |
| 2026-05-07 16:52 | 50.42669 | 57.09722 | 6886 ft | 295 kts | 346° |
| 2026-05-07 16:53 | 50.44672 | 57.08949 | 7583 ft | 297 kts | 346° |
| 2026-05-07 16:53 | 50.46687 | 57.08172 | 8249 ft | 301 kts | 346° |
| 2026-05-07 16:53 | 50.48735 | 57.07384 | 8897 ft | 304 kts | 346° |
| 2026-05-07 16:53 | 50.50790 | 57.06594 | 9546 ft | 307 kts | 347° |
| 2026-05-07 16:54 | 50.52861 | 57.05798 | 10177 ft | 310 kts | 347° |
| 2026-05-07 16:54 | 50.54989 | 57.04983 | 10571 ft | 322 kts | 347° |
| 2026-05-07 16:54 | 50.57210 | 57.04134 | 10883 ft | 336 kts | 347° |
| 2026-05-07 16:54 | 50.59515 | 57.03249 | 11412 ft | 342 kts | 347° |
| 2026-05-07 16:55 | 50.61805 | 57.02367 | 12041 ft | 344 kts | 347° |
| 2026-05-07 16:55 | 50.64157 | 57.01459 | 12644 ft | 347 kts | 347° |
| 2026-05-07 16:55 | 50.66505 | 57.00555 | 13224 ft | 350 kts | 347° |
| 2026-05-07 16:55 | 50.68888 | 56.99635 | 13780 ft | 354 kts | 347° |
| 2026-05-07 16:56 | 50.71279 | 56.98712 | 14349 ft | 356 kts | 347° |
| 2026-05-07 16:56 | 50.73675 | 56.97786 | 14791 ft | 359 kts | 347° |
| 2026-05-07 16:56 | 50.78555 | 56.95895 | 14850 ft | 359 kts | 347° |
| 2026-05-07 16:57 | 50.80965 | 56.94958 | 14852 ft | 359 kts | 347° |
| 2026-05-07 16:57 | 50.83399 | 56.94012 | 14849 ft | 359 kts | 347° |
| 2026-05-07 16:57 | 50.85820 | 56.93071 | 14849 ft | 358 kts | 347° |
| 2026-05-07 16:57 | 50.88247 | 56.92128 | 14848 ft | 359 kts | 347° |
| 2026-05-07 16:58 | 50.90641 | 56.91195 | 14851 ft | 358 kts | 347° |
| 2026-05-07 16:58 | 50.93059 | 56.90250 | 14850 ft | 358 kts | 347° |
| 2026-05-07 16:58 | 50.95497 | 56.89300 | 14845 ft | 358 kts | 347° |
| 2026-05-07 16:58 | 50.97906 | 56.88361 | 14849 ft | 358 kts | 347° |
| 2026-05-07 16:59 | 51.00335 | 56.87410 | 14849 ft | 358 kts | 347° |
| 2026-05-07 16:59 | 51.02747 | 56.86465 | 14848 ft | 358 kts | 347° |
| 2026-05-07 16:59 | 51.05165 | 56.85516 | 14844 ft | 358 kts | 346° |
| 2026-05-07 16:59 | 51.07471 | 56.84109 | 14836 ft | 359 kts | 330° |
| 2026-05-07 17:00 | 51.09432 | 56.81681 | 14942 ft | 363 kts | 313° |
| 2026-05-07 17:00 | 51.11083 | 56.78638 | 15502 ft | 364 kts | 309° |
| 2026-05-07 17:00 | 51.12674 | 56.75555 | 16123 ft | 363 kts | 309° |
| 2026-05-07 17:00 | 51.14292 | 56.72414 | 16656 ft | 366 kts | 309° |
| 2026-05-07 17:01 | 51.15913 | 56.69289 | 17124 ft | 369 kts | 309° |
| 2026-05-07 17:01 | 51.17546 | 56.66162 | 17604 ft | 372 kts | 309° |
| 2026-05-07 17:01 | 51.19219 | 56.62969 | 18086 ft | 375 kts | 310° |
| 2026-05-07 17:01 | 51.20885 | 56.59793 | 18576 ft | 377 kts | 310° |
| 2026-05-07 17:02 | 51.22564 | 56.56594 | 19051 ft | 380 kts | 310° |
| 2026-05-07 17:02 | 51.24256 | 56.53366 | 19508 ft | 382 kts | 310° |
| 2026-05-07 17:02 | 51.25961 | 56.50110 | 19944 ft | 385 kts | 310° |
| 2026-05-07 17:02 | 51.27703 | 56.46785 | 20377 ft | 388 kts | 310° |
| 2026-05-07 17:03 | 51.29417 | 56.43506 | 20811 ft | 390 kts | 310° |
| 2026-05-07 17:03 | 51.31158 | 56.40171 | 21232 ft | 393 kts | 310° |
| 2026-05-07 17:03 | 51.32913 | 56.36805 | 21691 ft | 394 kts | 311° |
| 2026-05-07 17:03 | 51.34642 | 56.33479 | 22100 ft | 396 kts | 310° |
| 2026-05-07 17:04 | 51.36420 | 56.30062 | 22477 ft | 399 kts | 310° |
| 2026-05-07 17:04 | 51.38180 | 56.26678 | 22855 ft | 401 kts | 311° |
| 2026-05-07 17:04 | 51.39973 | 56.23223 | 23223 ft | 404 kts | 311° |
| 2026-05-07 17:04 | 51.41769 | 56.19752 | 23595 ft | 406 kts | 311° |
| 2026-05-07 17:05 | 51.43550 | 56.16314 | 23965 ft | 408 kts | 311° |
| 2026-05-07 17:05 | 51.45355 | 56.12819 | 24324 ft | 410 kts | 311° |
| 2026-05-07 17:05 | 51.47175 | 56.09293 | 24695 ft | 412 kts | 311° |
| 2026-05-07 17:05 | 51.49000 | 56.05750 | 25053 ft | 414 kts | 311° |
| 2026-05-07 17:06 | 51.50853 | 56.02148 | 25389 ft | 416 kts | 312° |
| 2026-05-07 17:06 | 51.52677 | 55.98598 | 25704 ft | 419 kts | 312° |
| 2026-05-07 17:06 | 51.54543 | 55.94963 | 26029 ft | 421 kts | 312° |
| 2026-05-07 17:06 | 51.56409 | 55.91327 | 26363 ft | 423 kts | 312° |
| 2026-05-07 17:07 | 51.58261 | 55.87708 | 26678 ft | 425 kts | 312° |
| 2026-05-07 17:07 | 51.60141 | 55.84029 | 26964 ft | 427 kts | 312° |
| 2026-05-07 17:07 | 51.62026 | 55.80336 | 27261 ft | 430 kts | 313° |
| 2026-05-07 17:07 | 51.63940 | 55.76581 | 27566 ft | 431 kts | 313° |
| 2026-05-07 17:08 | 51.65837 | 55.72852 | 27858 ft | 434 kts | 313° |
| 2026-05-07 17:08 | 51.67727 | 55.69133 | 28142 ft | 436 kts | 313° |
| 2026-05-07 17:08 | 51.69650 | 55.65342 | 28433 ft | 437 kts | 313° |
| 2026-05-07 17:08 | 51.71573 | 55.61552 | 28711 ft | 440 kts | 313° |
| 2026-05-07 17:09 | 51.73505 | 55.57736 | 28980 ft | 442 kts | 313° |
| 2026-05-07 17:09 | 51.75459 | 55.53868 | 29259 ft | 444 kts | 313° |
| 2026-05-07 17:09 | 51.77407 | 55.50001 | 29499 ft | 446 kts | 313° |
| 2026-05-07 17:09 | 51.79363 | 55.46117 | 29768 ft | 448 kts | 313° |
| 2026-05-07 17:10 | 51.81290 | 55.42196 | 30067 ft | 450 kts | 311° |
| 2026-05-07 17:10 | 51.83188 | 55.38186 | 30342 ft | 452 kts | 311° |
| 2026-05-07 17:10 | 51.85083 | 55.34145 | 30575 ft | 454 kts | 310° |
| 2026-05-07 17:10 | 51.86997 | 55.30058 | 30770 ft | 457 kts | 310° |
| 2026-05-07 17:11 | 51.88938 | 55.25920 | 30965 ft | 459 kts | 310° |
| 2026-05-07 17:11 | 51.90863 | 55.21818 | 31171 ft | 461 kts | 310° |
| 2026-05-07 17:11 | 51.92803 | 55.17683 | 31388 ft | 462 kts | 310° |
| 2026-05-07 17:11 | 51.94748 | 55.13531 | 31614 ft | 463 kts | 310° |
| 2026-05-07 17:12 | 51.96683 | 55.09396 | 31827 ft | 465 kts | 310° |
| 2026-05-07 17:12 | 51.98646 | 55.05195 | 32106 ft | 464 kts | 310° |
| 2026-05-07 17:12 | 52.00577 | 55.01053 | 32435 ft | 462 kts | 310° |
| 2026-05-07 17:12 | 52.02494 | 54.96939 | 32752 ft | 461 kts | 310° |
| 2026-05-07 17:13 | 52.04424 | 54.92788 | 33023 ft | 460 kts | 309° |
| 2026-05-07 17:13 | 52.06346 | 54.88650 | 33291 ft | 459 kts | 309° |
| 2026-05-07 17:13 | 52.08259 | 54.84519 | 33535 ft | 459 kts | 309° |
| 2026-05-07 17:13 | 52.10160 | 54.80419 | 33818 ft | 458 kts | 309° |
| 2026-05-07 17:14 | 52.12059 | 54.76310 | 34071 ft | 457 kts | 309° |
| 2026-05-07 17:14 | 52.13961 | 54.72190 | 34291 ft | 456 kts | 309° |
| 2026-05-07 17:14 | 52.15863 | 54.68060 | 34516 ft | 456 kts | 309° |
| 2026-05-07 17:14 | 52.17750 | 54.63966 | 34729 ft | 456 kts | 309° |
| 2026-05-07 17:15 | 52.21550 | 54.55689 | 34973 ft | 455 kts | 308° |
| 2026-05-07 17:15 | 52.23414 | 54.51620 | 35309 ft | 455 kts | 308° |
| 2026-05-07 17:15 | 52.25323 | 54.47443 | 35267 ft | 455 kts | 308° |
| 2026-05-07 17:16 | 52.27187 | 54.43361 | 35424 ft | 455 kts | 308° |
| 2026-05-07 17:16 | 52.29081 | 54.39203 | 35586 ft | 455 kts | 308° |
| 2026-05-07 17:16 | 52.30902 | 54.34978 | 35755 ft | 455 kts | 304° |
| 2026-05-07 17:16 | 52.32552 | 54.30634 | 35821 ft | 456 kts | 300° |
| 2026-05-07 17:17 | 52.35507 | 54.21456 | 35842 ft | 457 kts | 297° |
| 2026-05-07 17:17 | 52.38368 | 54.12166 | 35871 ft | 456 kts | 297° |
| 2026-05-07 17:18 | 52.41213 | 54.02934 | 35846 ft | 454 kts | 297° |
| 2026-05-07 17:18 | 52.44034 | 53.93779 | 35852 ft | 454 kts | 297° |
| 2026-05-07 17:19 | 52.46857 | 53.84591 | 35841 ft | 453 kts | 297° |
| 2026-05-07 17:19 | 52.49674 | 53.75392 | 35868 ft | 453 kts | 297° |
| 2026-05-07 17:20 | 52.52482 | 53.66188 | 35869 ft | 452 kts | 297° |
| 2026-05-07 17:20 | 52.55279 | 53.56984 | 35873 ft | 452 kts | 298° |
| 2026-05-07 17:21 | 52.58077 | 53.47741 | 35865 ft | 450 kts | 298° |
| 2026-05-07 17:21 | 52.60838 | 53.38587 | 35867 ft | 450 kts | 298° |
| 2026-05-07 17:22 | 52.63621 | 53.29322 | 35860 ft | 449 kts | 297° |
| 2026-05-07 17:22 | 52.66352 | 53.20195 | 35869 ft | 448 kts | 297° |
| 2026-05-07 17:23 | 52.69090 | 53.11009 | 35858 ft | 447 kts | 297° |
| 2026-05-07 17:23 | 52.71821 | 53.01814 | 35879 ft | 447 kts | 297° |
| 2026-05-07 17:24 | 52.74535 | 52.92637 | 35867 ft | 446 kts | 297° |
| 2026-05-07 17:24 | 52.77233 | 52.83479 | 35875 ft | 446 kts | 297° |
| 2026-05-07 17:25 | 52.79932 | 52.74274 | 35873 ft | 446 kts | 297° |
| 2026-05-07 17:25 | 52.82625 | 52.65053 | 35887 ft | 446 kts | 297° |
| 2026-05-07 17:26 | 52.85294 | 52.55881 | 35873 ft | 445 kts | 297° |
| 2026-05-07 17:26 | 52.87976 | 52.46630 | 35871 ft | 445 kts | 297° |
| 2026-05-07 17:27 | 52.90626 | 52.37458 | 35872 ft | 445 kts | 297° |
| 2026-05-07 17:27 | 52.93287 | 52.28210 | 35871 ft | 445 kts | 297° |
| 2026-05-07 17:28 | 52.95935 | 52.18973 | 35872 ft | 445 kts | 297° |
| 2026-05-07 17:28 | 52.98564 | 52.09764 | 35872 ft | 445 kts | 297° |
| 2026-05-07 17:29 | 53.01191 | 52.00523 | 35883 ft | 445 kts | 297° |
| 2026-05-07 17:29 | 53.03819 | 51.91231 | 35888 ft | 445 kts | 297° |
| 2026-05-07 17:30 | 53.06428 | 51.81968 | 35877 ft | 444 kts | 297° |
| 2026-05-07 17:30 | 53.09043 | 51.72646 | 35887 ft | 443 kts | 297° |
| 2026-05-07 17:31 | 53.11617 | 51.63437 | 35888 ft | 442 kts | 297° |
| 2026-05-07 17:31 | 53.14198 | 51.54168 | 35885 ft | 441 kts | 297° |
| 2026-05-07 17:32 | 53.16754 | 51.44949 | 35880 ft | 441 kts | 297° |
| 2026-05-07 17:32 | 53.19311 | 51.35686 | 35876 ft | 440 kts | 297° |
| 2026-05-07 17:33 | 53.21847 | 51.26465 | 35867 ft | 440 kts | 296° |
| 2026-05-07 17:33 | 53.24377 | 51.17226 | 35872 ft | 439 kts | 296° |
| 2026-05-07 17:34 | 53.26907 | 51.07962 | 35869 ft | 437 kts | 296° |
| 2026-05-07 17:34 | 53.29409 | 50.98750 | 35855 ft | 436 kts | 296° |
| 2026-05-07 17:35 | 53.31905 | 50.89533 | 35862 ft | 437 kts | 296° |
| 2026-05-07 17:35 | 53.34407 | 50.80251 | 35867 ft | 437 kts | 296° |
| 2026-05-07 17:36 | 53.36872 | 50.71071 | 35869 ft | 436 kts | 296° |
| 2026-05-07 17:36 | 53.39353 | 50.61800 | 35869 ft | 436 kts | 296° |
| 2026-05-07 17:37 | 53.40985 | 50.55678 | 35880 ft | 436 kts | 295° |
| 2026-05-07 17:37 | 53.44256 | 50.43355 | 35882 ft | 435 kts | 295° |
| 2026-05-07 17:38 | 53.46697 | 50.34112 | 35890 ft | 435 kts | 295° |
| 2026-05-07 17:38 | 53.49791 | 50.25406 | 35894 ft | 435 kts | 310° |
| 2026-05-07 17:39 | 53.54218 | 50.18596 | 35901 ft | 437 kts | 326° |
| 2026-05-07 17:39 | 53.59660 | 50.14165 | 35898 ft | 439 kts | 342° |
| 2026-05-07 17:40 | 53.65521 | 50.11657 | 35904 ft | 432 kts | 346° |
| 2026-05-07 17:40 | 53.71346 | 50.09347 | 35904 ft | 433 kts | 346° |
| 2026-05-07 17:41 | 53.77182 | 50.06991 | 35903 ft | 433 kts | 346° |
| 2026-05-07 17:41 | 53.83026 | 50.04604 | 35902 ft | 434 kts | 345° |
| 2026-05-07 17:42 | 53.88879 | 50.02200 | 35897 ft | 433 kts | 345° |
| 2026-05-07 17:42 | 53.94758 | 49.99779 | 35893 ft | 435 kts | 345° |
| 2026-05-07 17:43 | 54.00617 | 49.97358 | 35547 ft | 436 kts | 345° |
| 2026-05-07 17:43 | 54.03561 | 49.96138 | 35074 ft | 436 kts | 345° |
| 2026-05-07 17:43 | 54.06497 | 49.94912 | 34444 ft | 437 kts | 345° |
| 2026-05-07 17:44 | 54.09455 | 49.93669 | 33700 ft | 439 kts | 346° |
| 2026-05-07 17:44 | 54.12400 | 49.92432 | 32963 ft | 441 kts | 346° |
| 2026-05-07 17:44 | 54.15403 | 49.91171 | 32241 ft | 442 kts | 346° |
| 2026-05-07 17:44 | 54.18346 | 49.89936 | 31691 ft | 439 kts | 346° |
| 2026-05-07 17:45 | 54.21307 | 49.88694 | 31136 ft | 437 kts | 346° |
| 2026-05-07 17:45 | 54.24225 | 49.87468 | 30546 ft | 435 kts | 346° |
| 2026-05-07 17:45 | 54.27197 | 49.86216 | 29918 ft | 434 kts | 346° |
| 2026-05-07 17:45 | 54.30099 | 49.84990 | 29385 ft | 431 kts | 346° |
| 2026-05-07 17:46 | 54.32985 | 49.83770 | 28928 ft | 426 kts | 346° |
| 2026-05-07 17:46 | 54.35893 | 49.82664 | 28506 ft | 421 kts | 349° |
| 2026-05-07 17:46 | 54.38747 | 49.81854 | 28108 ft | 415 kts | 352° |
| 2026-05-07 17:46 | 54.41602 | 49.81154 | 27700 ft | 409 kts | 352° |
| 2026-05-07 17:47 | 54.44413 | 49.80489 | 27290 ft | 404 kts | 352° |
| 2026-05-07 17:47 | 54.47179 | 49.79834 | 26921 ft | 399 kts | 352° |
| 2026-05-07 17:47 | 54.49900 | 49.79184 | 26590 ft | 396 kts | 352° |
| 2026-05-07 17:47 | 54.52629 | 49.78528 | 26262 ft | 393 kts | 352° |
| 2026-05-07 17:48 | 54.55344 | 49.77873 | 25906 ft | 390 kts | 352° |
| 2026-05-07 17:48 | 54.57999 | 49.77231 | 25527 ft | 387 kts | 352° |
| 2026-05-07 17:48 | 54.60651 | 49.76586 | 25131 ft | 385 kts | 352° |
| 2026-05-07 17:48 | 54.63317 | 49.75939 | 24723 ft | 382 kts | 352° |
| 2026-05-07 17:49 | 54.65920 | 49.75306 | 24327 ft | 379 kts | 352° |
| 2026-05-07 17:49 | 54.68544 | 49.74665 | 23929 ft | 377 kts | 352° |
| 2026-05-07 17:49 | 54.71143 | 49.74031 | 23522 ft | 374 kts | 352° |
| 2026-05-07 17:49 | 54.73682 | 49.73357 | 23111 ft | 372 kts | 350° |
| 2026-05-07 17:50 | 54.76208 | 49.72379 | 22682 ft | 369 kts | 346° |
| 2026-05-07 17:50 | 54.78656 | 49.71089 | 22248 ft | 367 kts | 342° |
| 2026-05-07 17:50 | 54.81066 | 49.69642 | 21827 ft | 364 kts | 341° |
| 2026-05-07 17:50 | 54.83451 | 49.68178 | 21403 ft | 362 kts | 341° |
| 2026-05-07 17:51 | 54.85784 | 49.66741 | 20980 ft | 360 kts | 341° |
| 2026-05-07 17:51 | 54.88135 | 49.65296 | 20556 ft | 357 kts | 341° |
| 2026-05-07 17:51 | 54.90479 | 49.63856 | 20139 ft | 355 kts | 341° |
| 2026-05-07 17:51 | 54.92773 | 49.62448 | 19730 ft | 353 kts | 341° |
| 2026-05-07 17:52 | 54.95100 | 49.61019 | 19312 ft | 350 kts | 341° |
| 2026-05-07 17:52 | 54.97362 | 49.59630 | 18972 ft | 346 kts | 341° |
| 2026-05-07 17:52 | 54.99627 | 49.58236 | 18924 ft | 347 kts | 341° |
| 2026-05-07 17:52 | 55.01920 | 49.56825 | 18908 ft | 346 kts | 341° |
| 2026-05-07 17:53 | 55.04182 | 49.55433 | 18439 ft | 349 kts | 341° |
| 2026-05-07 17:53 | 55.06475 | 49.54019 | 17655 ft | 357 kts | 341° |
| 2026-05-07 17:53 | 55.08830 | 49.52561 | 17102 ft | 357 kts | 341° |
| 2026-05-07 17:53 | 55.11145 | 49.51126 | 16551 ft | 357 kts | 341° |
| 2026-05-07 17:54 | 55.13490 | 49.49671 | 16088 ft | 355 kts | 341° |
| 2026-05-07 17:54 | 55.15762 | 49.48261 | 15931 ft | 343 kts | 341° |
| 2026-05-07 17:54 | 55.17942 | 49.46780 | 15918 ft | 331 kts | 338° |
| 2026-05-07 17:54 | 55.20039 | 49.45178 | 15530 ft | 330 kts | 336° |
| 2026-05-07 17:55 | 55.22163 | 49.43516 | 14730 ft | 340 kts | 336° |
| 2026-05-07 17:55 | 55.24301 | 49.41839 | 14108 ft | 343 kts | 336° |
| 2026-05-07 17:55 | 55.26476 | 49.40130 | 13536 ft | 344 kts | 336° |
| 2026-05-07 17:55 | 55.28667 | 49.38409 | 13044 ft | 342 kts | 336° |
| 2026-05-07 17:56 | 55.30845 | 49.36700 | 12632 ft | 338 kts | 336° |
| 2026-05-07 17:56 | 55.32977 | 49.35025 | 12226 ft | 334 kts | 336° |
| 2026-05-07 17:56 | 55.35070 | 49.33380 | 11827 ft | 330 kts | 336° |
| 2026-05-07 17:56 | 55.37150 | 49.31741 | 11419 ft | 327 kts | 336° |
| 2026-05-07 17:57 | 55.39214 | 49.30116 | 11022 ft | 324 kts | 336° |
| 2026-05-07 17:57 | 55.40593 | 49.29029 | 10733 ft | 322 kts | 336° |
| 2026-05-07 17:57 | 55.43281 | 49.26905 | 10165 ft | 318 kts | 336° |
| 2026-05-07 17:57 | 55.45251 | 49.25348 | 10054 ft | 305 kts | 336° |
| 2026-05-07 17:58 | 55.47155 | 49.23843 | 9905 ft | 292 kts | 336° |
| 2026-05-07 17:58 | 55.49003 | 49.22347 | 9590 ft | 288 kts | 332° |
| 2026-05-07 17:58 | 55.50645 | 49.20260 | 8814 ft | 302 kts | 316° |
| 2026-05-07 17:58 | 55.51960 | 49.17397 | 8355 ft | 303 kts | 308° |
| 2026-05-07 17:59 | 55.53178 | 49.14417 | 8220 ft | 292 kts | 307° |
| 2026-05-07 17:59 | 55.54367 | 49.11480 | 7840 ft | 289 kts | 307° |
| 2026-05-07 17:59 | 55.55521 | 49.08648 | 7497 ft | 287 kts | 308° |
| 2026-05-07 17:59 | 55.56701 | 49.05769 | 7071 ft | 286 kts | 308° |
| 2026-05-07 18:00 | 55.57847 | 49.02978 | 6940 ft | 273 kts | 308° |
| 2026-05-07 18:00 | 55.58921 | 49.00358 | 6944 ft | 259 kts | 308° |
| 2026-05-07 18:00 | 55.59961 | 48.97823 | 6956 ft | 244 kts | 308° |
| 2026-05-07 18:00 | 55.60930 | 48.95459 | 6940 ft | 230 kts | 308° |
| 2026-05-07 18:01 | 55.61832 | 48.93256 | 6979 ft | 210 kts | 308° |
| 2026-05-07 18:01 | 55.62670 | 48.91211 | 6987 ft | 203 kts | 308° |
| 2026-05-07 18:01 | 55.63426 | 48.89116 | 6946 ft | 204 kts | 295° |
| 2026-05-07 18:01 | 55.63654 | 48.86623 | 6938 ft | 207 kts | 269° |
| 2026-05-07 18:02 | 55.63119 | 48.81574 | 6953 ft | 207 kts | 260° |
| 2026-05-07 18:02 | 55.62822 | 48.79099 | 6955 ft | 206 kts | 260° |
| 2026-05-07 18:02 | 55.62477 | 48.76624 | 6951 ft | 207 kts | 250° |
| 2026-05-07 18:03 | 55.61656 | 48.74514 | 6946 ft | 210 kts | 224° |
| 2026-05-07 18:03 | 55.60471 | 48.73008 | 6958 ft | 212 kts | 210° |
| 2026-05-07 18:03 | 55.59056 | 48.72362 | 6949 ft | 214 kts | 181° |
| 2026-05-07 18:03 | 55.57590 | 48.72890 | 6958 ft | 214 kts | 155° |
| 2026-05-07 18:04 | 55.56401 | 48.74420 | 6957 ft | 212 kts | 130° |
| 2026-05-07 18:04 | 55.55685 | 48.76624 | 6954 ft | 208 kts | 105° |
| 2026-05-07 18:04 | 55.55538 | 48.79137 | 6952 ft | 205 kts | 82° |
| 2026-05-07 18:04 | 55.55969 | 48.81508 | 6941 ft | 202 kts | 58° |
| 2026-05-07 18:05 | 55.56872 | 48.83338 | 6934 ft | 199 kts | 37° |
| 2026-05-07 18:05 | 55.58022 | 48.84740 | 6958 ft | 199 kts | 32° |
| 2026-05-07 18:05 | 55.59180 | 48.86071 | 6968 ft | 200 kts | 32° |
| 2026-05-07 18:05 | 55.60354 | 48.87430 | 6965 ft | 199 kts | 32° |
| 2026-05-07 18:06 | 55.61483 | 48.88758 | 6820 ft | 194 kts | 33° |
| 2026-05-07 18:06 | 55.62606 | 48.90092 | 6426 ft | 195 kts | 33° |
| 2026-05-07 18:06 | 55.63763 | 48.91272 | 6037 ft | 193 kts | 19° |
| 2026-05-07 18:06 | 55.65080 | 48.91579 | 5889 ft | 193 kts | 357° |
| 2026-05-07 18:07 | 55.66372 | 48.90942 | 5575 ft | 194 kts | 331° |
| 2026-05-07 18:07 | 55.67233 | 48.89125 | 5091 ft | 202 kts | 292° |
| 2026-05-07 18:07 | 55.67272 | 48.86675 | 4776 ft | 204 kts | 253° |
| 2026-05-07 18:07 | 55.66459 | 48.84681 | 4625 ft | 205 kts | 218° |
| 2026-05-07 18:08 | 55.65309 | 48.83122 | 4496 ft | 205 kts | 226° |
| 2026-05-07 18:08 | 55.64693 | 48.80909 | 4326 ft | 203 kts | 264° |
| 2026-05-07 18:08 | 55.64947 | 48.78538 | 4172 ft | 200 kts | 301° |
| 2026-05-07 18:08 | 55.65963 | 48.76938 | 4020 ft | 196 kts | 340° |
| 2026-05-07 18:09 | 55.67283 | 48.76808 | 3863 ft | 191 kts | 18° |
| 2026-05-07 18:09 | 55.68341 | 48.78190 | 3706 ft | 190 kts | 58° |
| 2026-05-07 18:09 | 55.68650 | 48.80415 | 3555 ft | 189 kts | 94° |
| 2026-05-07 18:09 | 55.68492 | 48.82731 | 3419 ft | 186 kts | 90° |
| 2026-05-07 18:10 | 55.68745 | 48.84872 | 3246 ft | 176 kts | 73° |
| 2026-05-07 18:10 | 55.69144 | 48.86930 | 2897 ft | 174 kts | 72° |
| 2026-05-07 18:10 | 55.69507 | 48.88929 | 2693 ft | 166 kts | 73° |
| 2026-05-07 18:10 | 55.69826 | 48.90886 | 2694 ft | 166 kts | 75° |
| 2026-05-07 18:11 | 55.70122 | 48.92865 | 2675 ft | 167 kts | 76° |
| 2026-05-07 18:11 | 55.70316 | 48.94215 | 2678 ft | 168 kts | 76° |
| 2026-05-07 18:11 | 55.70692 | 48.96927 | 2683 ft | 173 kts | 76° |
| 2026-05-07 18:11 | 55.70963 | 48.99011 | 2691 ft | 177 kts | 81° |
| 2026-05-07 18:12 | 55.70818 | 49.01191 | 2669 ft | 180 kts | 109° |
| 2026-05-07 18:12 | 55.70223 | 49.03139 | 2674 ft | 181 kts | 120° |
| 2026-05-07 18:12 | 55.69534 | 49.05010 | 2664 ft | 181 kts | 122° |
| 2026-05-07 18:12 | 55.68824 | 49.06843 | 2684 ft | 180 kts | 122° |
| 2026-05-07 18:13 | 55.68132 | 49.08604 | 2596 ft | 163 kts | 122° |
| 2026-05-07 18:13 | 55.67514 | 49.10174 | 2382 ft | 147 kts | 122° |
| 2026-05-07 18:13 | 55.66941 | 49.11640 | 2190 ft | 145 kts | 121° |
| 2026-05-07 18:13 | 55.66367 | 49.13116 | 2000 ft | 144 kts | 121° |
| 2026-05-07 18:14 | 55.65797 | 49.14579 | 1815 ft | 144 kts | 121° |
| 2026-05-07 18:14 | 55.65228 | 49.16037 | 1630 ft | 143 kts | 121° |
| 2026-05-07 18:14 | 55.64660 | 49.17495 | 1443 ft | 143 kts | 121° |
| 2026-05-07 18:14 | 55.64091 | 49.18938 | 1265 ft | 142 kts | 122° |
| 2026-05-07 18:15 | 55.63526 | 49.20372 | 1156 ft | 142 kts | 122° |
| 2026-05-07 18:15 | 55.62963 | 49.21809 | 1031 ft | 142 kts | 121° |
| 2026-05-07 18:15 | 55.62420 | 49.23254 | 678 ft | 141 kts | 123° |
| 2026-05-07 18:15 | 55.61863 | 49.24675 | 529 ft | 139 kts | 122° |
| 2026-05-07 18:16 | 55.61320 | 49.26095 | 419 ft | 130 kts | 124° |
| 2026-05-07 18:16 | 55.60896 | 49.27191 | 418 ft | 84 kts | 125° |
| 2026-05-07 18:16 | 55.60650 | 49.27808 | 418 ft | 46 kts | 124° |
| 2026-05-07 18:16 | 55.60479 | 49.28258 | 418 ft | 42 kts | 124° |
| 2026-05-07 18:17 | 55.60389 | 49.28523 | 418 ft | 13 kts | 94° |
| 2026-05-07 18:17 | 55.60428 | 49.28620 | 418 ft | 9 kts | 38° |
| 2026-05-07 18:17 | 55.60482 | 49.28685 | 418 ft | 5 kts | 32° |
| 2026-05-07 18:17 | 55.60491 | 49.28696 | 418 ft | 1 kts | 32° |
| 2026-05-07 18:18 | 55.60493 | 49.28698 | 418 ft | 0 kts | 32° |
| 2026-05-07 18:18 | 55.60506 | 49.28713 | 418 ft | 7 kts | 33° |
| 2026-05-07 18:19 | 55.60561 | 49.28780 | 418 ft | 8 kts | 41° |
| 2026-05-07 18:19 | 55.60581 | 49.28880 | 418 ft | 10 kts | 89° |
| 2026-05-07 18:19 | 55.60578 | 49.29034 | 418 ft | 14 kts | 91° |
| 2026-05-07 18:19 | 55.60602 | 49.29159 | 418 ft | 10 kts | 47° |
| 2026-05-07 18:20 | 55.60666 | 49.29243 | 418 ft | 4 kts | 35° |
| 2026-05-07 18:20 | 55.60696 | 49.29281 | 418 ft | 8 kts | 35° |
| 2026-05-07 18:20 | 55.60772 | 49.29375 | 418 ft | 14 kts | 34° |
| 2026-05-07 18:20 | 55.60812 | 49.29475 | 418 ft | 10 kts | 105° |
| 2026-05-07 18:21 | 55.60755 | 49.29632 | 418 ft | 16 kts | 123° |
| 2026-05-07 18:21 | 55.60731 | 49.29700 | 418 ft | 2 kts | 107° |
| 2026-05-07 18:21 | 55.60703 | 49.29763 | 419 ft | 11 kts | 126° |
| 2026-05-07 18:21 | 55.60666 | 49.29860 | 419 ft | 6 kts | 118° |
| 2026-05-07 18:22 | 55.60669 | 49.29903 | 419 ft | 5 kts | 61° |
| 2026-05-07 18:22 | 55.60674 | 49.29916 | 419 ft | 1 kts | 36° |
| 2026-05-07 18:22 | 55.60703 | 49.29952 | 419 ft | 5 kts | 35° |
| 2026-05-07 18:22 | 55.60707 | 49.29957 | 419 ft | 0 kts | 35° |